createdAt,value
2022-12-18T00:02:28.211Z,102231.75
2022-12-18T00:05:29.854Z,102229.59
2022-12-18T00:08:31.605Z,102237.38
2022-12-18T00:11:33.297Z,102240.19
2022-12-18T00:14:34.963Z,102247.19
2022-12-18T00:17:36.565Z,102261.81
2022-12-18T00:20:40.176Z,102262.00
2022-12-18T00:23:43.838Z,102273.22
2022-12-18T00:26:45.609Z,102273.63
2022-12-18T00:29:48.719Z,102274.59
2022-12-18T00:32:50.306Z,102284.81
2022-12-18T00:35:51.896Z,102286.03
2022-12-18T00:38:55.193Z,102303.63
2022-12-18T00:42:15.567Z,102303.25
2022-12-18T00:45:17.225Z,102315.22
2022-12-18T00:48:19.000Z,102310.03
2022-12-18T00:51:20.635Z,102319.63
2022-12-18T00:54:22.235Z,102318.41
2022-12-18T00:57:25.564Z,102326.66
2022-12-18T01:00:27.229Z,102331.25
2022-12-18T01:03:28.920Z,102335.44
2022-12-18T01:06:30.762Z,102346.44
2022-12-18T01:09:32.503Z,102343.44
2022-12-18T01:12:34.324Z,102347.06
2022-12-18T01:15:35.946Z,102357.06
2022-12-18T01:18:37.572Z,102363.44
2022-12-18T01:21:39.182Z,102358.25
2022-12-18T01:24:40.842Z,102365.06
2022-12-18T01:27:42.505Z,102366.28
2022-12-18T01:30:44.325Z,102367.69
2022-12-18T01:33:46.473Z,102365.28
2022-12-18T01:36:48.133Z,102364.09
2022-12-18T01:39:50.901Z,102362.47
2022-12-18T01:42:53.155Z,102358.88
2022-12-18T01:45:55.262Z,102365.69
2022-12-18T01:49:02.281Z,102371.53
2022-12-18T01:52:04.794Z,102375.09
2022-12-18T01:55:07.803Z,102380.91
2022-12-18T01:58:09.611Z,102383.91
2022-12-18T02:01:11.391Z,102381.72
2022-12-18T02:04:31.238Z,102392.94
2022-12-18T02:07:45.189Z,102393.69
2022-12-18T02:11:13.248Z,102402.53
2022-12-18T02:14:36.801Z,102413.16
2022-12-18T02:17:44.420Z,102405.53
2022-12-18T02:21:04.006Z,102409.91
2022-12-18T02:24:34.683Z,102417.13
2022-12-18T02:27:40.080Z,102406.88
2022-12-18T02:30:43.924Z,102426.09
2022-12-18T02:33:47.071Z,102430.50
2022-12-18T02:36:50.223Z,102429.06
2022-12-18T02:39:54.051Z,102417.69
2022-12-18T02:42:55.923Z,102420.19
2022-12-18T02:46:00.579Z,102423.41
2022-12-18T02:49:19.883Z,102424.38
2022-12-18T02:52:39.506Z,102434.00
2022-12-18T02:55:55.257Z,102434.41
2022-12-18T02:59:01.112Z,102439.59
2022-12-18T03:02:20.022Z,102450.19
2022-12-18T03:05:44.538Z,102454.59
2022-12-18T03:08:50.734Z,102467.56
2022-12-18T03:12:23.842Z,102470.44
2022-12-18T03:15:31.590Z,102475.22
2022-12-18T03:18:47.080Z,102477.75
2022-12-18T03:21:52.700Z,102475.75
2022-12-18T03:24:57.483Z,102475.31
2022-12-18T03:28:02.081Z,102465.25
2022-12-18T03:31:07.606Z,102478.28
2022-12-18T03:34:20.753Z,102488.22
2022-12-18T03:37:22.510Z,102492.06
2022-12-18T03:40:32.232Z,102501.34
2022-12-18T03:43:54.077Z,102502.84
2022-12-18T03:47:16.525Z,102504.56
2022-12-18T03:50:28.159Z,102512.66
2022-12-18T03:53:50.193Z,102513.41
2022-12-18T03:56:59.133Z,102510.34
2022-12-18T04:00:09.218Z,102518.25
2022-12-18T04:03:12.086Z,102519.78
2022-12-18T04:06:15.924Z,102532.16
2022-12-18T04:09:17.872Z,102536.53
2022-12-18T04:12:19.544Z,102529.09
2022-12-18T04:15:21.254Z,102537.06
2022-12-18T04:18:22.856Z,102548.16
2022-12-18T04:21:24.513Z,102547.88
2022-12-18T04:24:26.465Z,102549.25
2022-12-18T04:27:28.099Z,102547.19
2022-12-18T04:30:30.140Z,102555.78
2022-12-18T04:33:32.001Z,102556.94
2022-12-18T04:36:33.833Z,102560.16
2022-12-18T04:39:36.684Z,102565.00
2022-12-18T04:42:39.736Z,102567.13
2022-12-18T04:45:41.502Z,102561.75
2022-12-18T04:48:43.150Z,102562.38
2022-12-18T04:51:44.837Z,102569.63
2022-12-18T04:54:46.549Z,102575.34
2022-12-18T04:57:48.157Z,102588.66
2022-12-18T05:00:49.775Z,102594.38
2022-12-18T05:03:52.671Z,102596.06
2022-12-18T05:06:54.446Z,102604.38
2022-12-18T05:09:56.109Z,102612.47
2022-12-18T05:13:01.324Z,102623.13
2022-12-18T05:16:03.691Z,102628.13
2022-12-18T05:19:05.546Z,102623.13
2022-12-18T05:22:07.199Z,102622.22
2022-12-18T05:25:09.466Z,102635.91
2022-12-18T05:28:11.301Z,102642.09
2022-12-18T05:31:13.402Z,102648.72
2022-12-18T05:34:15.170Z,102645.13
2022-12-18T05:37:17.899Z,102656.25
2022-12-18T05:40:19.562Z,102656.53
2022-12-18T05:43:25.237Z,102663.00
2022-12-18T05:46:27.637Z,102659.16
2022-12-18T05:49:29.284Z,102665.38
2022-12-18T05:52:31.562Z,102673.31
2022-12-18T05:55:37.294Z,102674.13
2022-12-18T05:58:39.846Z,102674.53
2022-12-18T06:01:41.825Z,102679.84
2022-12-18T06:04:43.682Z,102685.28
2022-12-18T06:07:45.426Z,102684.47
2022-12-18T06:10:53.325Z,102686.47
2022-12-18T06:13:59.181Z,102692.81
2022-12-18T06:17:01.264Z,102693.84
2022-12-18T06:20:03.920Z,102701.16
2022-12-18T06:23:05.498Z,102706.91
2022-12-18T06:26:09.488Z,102708.69
2022-12-18T06:29:11.142Z,102714.22
2022-12-18T06:32:12.787Z,102717.91
2022-12-18T06:35:14.422Z,102716.81
2022-12-18T06:38:17.575Z,102713.09
2022-12-18T06:41:21.688Z,102728.31
2022-12-18T06:44:23.495Z,102726.19
2022-12-18T06:47:25.202Z,102730.16
2022-12-18T06:50:27.014Z,102738.88
2022-12-18T06:53:29.349Z,102745.78
2022-12-18T06:56:31.643Z,102755.00
2022-12-18T06:59:33.343Z,102761.81
2022-12-18T07:02:35.467Z,102761.34
2022-12-18T07:05:41.853Z,102772.00
2022-12-18T07:08:43.659Z,102779.56
2022-12-18T07:11:45.377Z,102787.00
2022-12-18T07:14:46.970Z,102794.78
2022-12-18T07:17:48.605Z,102784.56
2022-12-18T07:20:50.241Z,102793.56
2022-12-18T07:23:51.995Z,102794.91
2022-12-18T07:26:53.717Z,102804.63
2022-12-18T07:29:55.990Z,102806.03
2022-12-18T07:32:57.689Z,102809.38
2022-12-18T07:36:04.593Z,102811.66
2022-12-18T07:39:06.310Z,102824.09
2022-12-18T07:42:26.463Z,102826.34
2022-12-18T07:45:29.193Z,102835.44
2022-12-18T07:48:31.590Z,102831.56
2022-12-18T07:51:33.623Z,102845.50
2022-12-18T07:54:35.309Z,102847.09
2022-12-18T07:57:56.423Z,102847.88
2022-12-18T08:01:05.870Z,102857.63
2022-12-18T08:04:08.021Z,102859.81
2022-12-18T08:07:09.681Z,102860.03
2022-12-18T08:10:11.303Z,102866.59
2022-12-18T08:13:12.924Z,102863.44
2022-12-18T08:16:14.569Z,102868.34
2022-12-18T08:19:16.255Z,102875.09
2022-12-18T08:22:18.033Z,102884.94
2022-12-18T08:25:19.669Z,102881.63
2022-12-18T08:28:21.478Z,102892.19
2022-12-18T08:31:23.791Z,102895.47
2022-12-18T08:34:26.247Z,102894.84
2022-12-18T08:37:27.887Z,102898.44
2022-12-18T08:40:29.625Z,102899.09
2022-12-18T08:43:49.554Z,102907.09
2022-12-18T08:46:51.132Z,102911.16
2022-12-18T08:49:52.773Z,102906.94
2022-12-18T08:52:54.475Z,102899.09
2022-12-18T08:55:57.769Z,102890.84
2022-12-18T08:58:59.571Z,102908.50
2022-12-18T09:02:02.119Z,102910.91
2022-12-18T09:05:04.157Z,102925.97
2022-12-18T09:08:05.837Z,102915.78
2022-12-18T09:11:14.445Z,102912.22
2022-12-18T09:14:16.138Z,102920.25
2022-12-18T09:17:17.878Z,102931.00
2022-12-18T09:20:20.149Z,102929.81
2022-12-18T09:23:22.385Z,102916.06
2022-12-18T09:26:25.833Z,102918.19
2022-12-18T09:29:27.493Z,102913.53
2022-12-18T09:32:29.855Z,102929.72
2022-12-18T09:35:31.706Z,102926.66
2022-12-18T09:38:34.749Z,102924.69
2022-12-18T09:41:54.274Z,102925.94
2022-12-18T09:44:56.020Z,102921.16
2022-12-18T09:47:58.612Z,102921.28
2022-12-18T09:51:06.832Z,102926.22
2022-12-18T09:54:15.218Z,102921.97
2022-12-18T09:57:21.507Z,102918.03
2022-12-18T10:00:25.201Z,102918.66
2022-12-18T10:03:27.566Z,102918.31
2022-12-18T10:06:57.258Z,102916.78
2022-12-18T10:10:13.789Z,102909.59
2022-12-18T10:13:32.063Z,102903.69
2022-12-18T10:17:12.324Z,102909.75
2022-12-18T10:20:25.058Z,102899.03
2022-12-18T10:23:34.636Z,102904.50
2022-12-18T10:26:36.431Z,102902.00
2022-12-18T10:29:38.872Z,102898.78
2022-12-18T10:32:40.711Z,102904.31
2022-12-18T10:35:43.367Z,102899.31
2022-12-18T10:38:45.162Z,102889.13
2022-12-18T10:41:47.246Z,102892.03
2022-12-18T10:45:02.637Z,102873.19
2022-12-18T10:48:04.787Z,102879.38
2022-12-18T10:51:12.095Z,102877.13
2022-12-18T10:54:24.765Z,102883.88
2022-12-18T10:57:35.026Z,102882.31
2022-12-18T11:00:37.033Z,102882.91
2022-12-18T11:03:41.994Z,102897.03
2022-12-18T11:07:06.842Z,102883.22
2022-12-18T11:10:18.673Z,102881.94
2022-12-18T11:13:23.163Z,102879.50
2022-12-18T11:16:24.988Z,102876.34
2022-12-18T11:19:36.153Z,102878.84
2022-12-18T11:22:39.288Z,102877.41
2022-12-18T11:25:52.750Z,102872.09
2022-12-18T11:29:09.780Z,102883.91
2022-12-18T11:32:28.226Z,102897.69
2022-12-18T11:35:46.722Z,102901.69
2022-12-18T11:38:50.299Z,102890.97
2022-12-18T11:42:12.698Z,102893.53
2022-12-18T11:45:14.480Z,102903.69
2022-12-18T11:48:27.841Z,102909.38
2022-12-18T11:51:38.314Z,102898.78
2022-12-18T11:54:39.950Z,102898.25
2022-12-18T11:58:15.651Z,102894.28
2022-12-18T12:01:54.961Z,102903.63
2022-12-18T12:05:04.994Z,102899.44
2022-12-18T12:08:12.530Z,102899.00
2022-12-18T12:11:49.735Z,102900.50
2022-12-18T12:15:19.166Z,102890.50
2022-12-18T12:18:26.775Z,102897.00
2022-12-18T12:21:42.104Z,102889.38
2022-12-18T12:25:11.254Z,102890.66
2022-12-18T12:28:31.305Z,102892.00
2022-12-18T12:32:03.825Z,102874.84
2022-12-18T12:35:44.137Z,102868.91
2022-12-18T12:38:56.095Z,102867.69
2022-12-18T12:42:16.807Z,102859.88
2022-12-18T12:45:29.378Z,102872.00
2022-12-18T12:48:52.345Z,102863.75
2022-12-18T12:52:01.272Z,102878.41
2022-12-18T12:55:10.313Z,102870.44
2022-12-18T12:58:26.009Z,102883.66
2022-12-18T13:02:00.702Z,102882.66
2022-12-18T13:05:19.918Z,102891.56
2022-12-18T13:08:30.071Z,102892.41
2022-12-18T13:12:00.046Z,102897.50
2022-12-18T13:15:23.448Z,102899.63
2022-12-18T13:18:26.344Z,102908.59
2022-12-18T13:21:31.947Z,102911.31
2022-12-18T13:24:33.929Z,102914.56
2022-12-18T13:27:41.343Z,102921.50
2022-12-18T13:30:44.823Z,102921.28
2022-12-18T13:34:23.835Z,102919.53
2022-12-18T13:37:39.510Z,102919.59
2022-12-18T13:40:41.613Z,102935.28
2022-12-18T13:44:13.706Z,102938.84
2022-12-18T13:47:38.407Z,102934.25
2022-12-18T13:50:40.554Z,102935.53
2022-12-18T13:53:50.742Z,102956.06
2022-12-18T13:56:52.981Z,102954.69
2022-12-18T13:59:54.713Z,102956.50
2022-12-18T14:02:58.104Z,102958.19
2022-12-18T14:06:13.667Z,102961.78
2022-12-18T14:09:26.287Z,102959.78
2022-12-18T14:12:51.630Z,102965.25
2022-12-18T14:15:53.590Z,102972.34
2022-12-18T14:19:08.372Z,102972.28
2022-12-18T14:22:28.729Z,102974.59
2022-12-18T14:25:31.787Z,102977.25
2022-12-18T14:28:34.261Z,102985.16
2022-12-18T14:31:35.932Z,102989.38
2022-12-18T14:34:40.723Z,102993.19
2022-12-18T14:37:42.382Z,103005.28
2022-12-18T14:40:44.859Z,102999.81
2022-12-18T14:43:49.246Z,103003.22
2022-12-18T14:46:51.866Z,102996.56
2022-12-18T14:49:53.472Z,102989.69
2022-12-18T14:52:55.066Z,102998.50
2022-12-18T14:55:56.916Z,102997.06
2022-12-18T14:59:23.715Z,103007.59
2022-12-18T15:02:28.801Z,103002.81
2022-12-18T15:05:32.593Z,103010.94
2022-12-18T15:08:37.904Z,103012.50
2022-12-18T15:11:42.989Z,103011.84
2022-12-18T15:14:45.052Z,103010.75
2022-12-18T15:17:46.988Z,103019.16
2022-12-18T15:20:54.243Z,103013.31
2022-12-18T15:23:56.513Z,103022.25
2022-12-18T15:26:59.099Z,103002.84
2022-12-18T15:30:09.779Z,103023.41
2022-12-18T15:33:25.767Z,103020.72
2022-12-18T15:36:30.930Z,103029.38
2022-12-18T15:39:32.785Z,103044.03
2022-12-18T15:42:53.622Z,103044.19
2022-12-18T15:45:55.502Z,103045.41
2022-12-18T15:49:02.189Z,103060.09
2022-12-18T15:52:05.783Z,103056.81
2022-12-18T15:55:36.586Z,103048.47
2022-12-18T15:58:39.089Z,103055.63
2022-12-18T16:01:43.069Z,103058.50
2022-12-18T16:04:46.816Z,103065.69
2022-12-18T16:07:48.737Z,103071.88
2022-12-18T16:10:50.314Z,103081.09
2022-12-18T16:13:53.255Z,103087.31
2022-12-18T16:16:58.591Z,103088.81
2022-12-18T16:20:00.678Z,103084.41
2022-12-18T16:23:02.572Z,103085.19
2022-12-18T16:26:05.634Z,103096.22
2022-12-18T16:29:07.537Z,103103.38
2022-12-18T16:32:16.643Z,103107.69
2022-12-18T16:35:18.645Z,103114.03
2022-12-18T16:38:20.914Z,103119.56
2022-12-18T16:41:34.728Z,103117.94
2022-12-18T16:44:36.777Z,103122.50
2022-12-18T16:47:39.865Z,103115.75
2022-12-18T16:50:42.113Z,103127.94
2022-12-18T16:53:44.509Z,103129.91
2022-12-18T16:56:49.839Z,103123.44
2022-12-18T16:59:51.936Z,103128.16
2022-12-18T17:02:54.753Z,103136.13
2022-12-18T17:06:03.185Z,103137.59
2022-12-18T17:09:09.015Z,103131.25
2022-12-18T17:12:10.942Z,103142.41
2022-12-18T17:15:12.809Z,103141.03
2022-12-18T17:18:15.096Z,103142.81
2022-12-18T17:21:17.677Z,103144.91
2022-12-18T17:24:20.657Z,103147.34
2022-12-18T17:27:22.572Z,103143.31
2022-12-18T17:30:24.430Z,103130.97
2022-12-18T17:33:26.413Z,103124.31
2022-12-18T17:36:29.022Z,103139.25
2022-12-18T17:39:31.386Z,103142.22
2022-12-18T17:42:34.046Z,103145.47
2022-12-18T17:45:39.874Z,103148.41
2022-12-18T17:48:41.866Z,103149.38
2022-12-18T17:51:43.838Z,103150.34
2022-12-18T17:54:48.056Z,103156.84
2022-12-18T17:57:50.766Z,103151.47
2022-12-18T18:00:52.792Z,103144.38
2022-12-18T18:03:57.844Z,103157.22
2022-12-18T18:07:00.030Z,103144.66
2022-12-18T18:10:02.014Z,103148.38
2022-12-18T18:13:23.373Z,103142.75
2022-12-18T18:16:25.292Z,103139.84
2022-12-18T18:19:27.213Z,103138.06
2022-12-18T18:22:29.132Z,103146.16
2022-12-18T18:25:31.222Z,103148.25
2022-12-18T18:28:33.247Z,103144.00
2022-12-18T18:31:35.316Z,103142.34
2022-12-18T18:34:43.414Z,103149.00
2022-12-18T18:37:48.203Z,103140.91
2022-12-18T18:41:04.279Z,103158.94
2022-12-18T18:44:06.859Z,103157.31
2022-12-18T18:47:09.591Z,103150.84
2022-12-18T18:50:12.934Z,103147.41
2022-12-18T18:53:14.550Z,103143.84
2022-12-18T18:57:03.925Z,103156.16
2022-12-18T18:59:46.488Z,103145.94
2022-12-18T19:02:48.386Z,103145.16
2022-12-18T19:06:00.003Z,103148.91
2022-12-18T19:09:04.358Z,103144.81
2022-12-18T19:12:25.312Z,103143.59
2022-12-18T19:15:27.999Z,103158.72
2022-12-18T19:18:30.063Z,103160.69
2022-12-18T19:21:34.109Z,103158.22
2022-12-18T19:24:37.038Z,103172.19
2022-12-18T19:27:40.076Z,103173.69
2022-12-18T19:30:41.874Z,103167.88
2022-12-18T19:33:46.172Z,103177.28
2022-12-18T19:36:49.057Z,103176.16
2022-12-18T19:39:53.161Z,103176.50
2022-12-18T19:42:55.058Z,103179.88
2022-12-18T19:45:57.047Z,103179.38
2022-12-18T19:49:00.263Z,103187.50
2022-12-18T19:52:02.783Z,103194.78
2022-12-18T19:55:05.140Z,103202.41
2022-12-18T19:58:07.021Z,103202.72
2022-12-18T20:01:09.020Z,103208.72
2022-12-18T20:04:12.581Z,103223.91
2022-12-18T20:07:14.607Z,103227.03
2022-12-18T20:10:20.001Z,103216.31
2022-12-18T20:13:22.940Z,103215.69
2022-12-18T20:16:25.190Z,103216.50
2022-12-18T20:19:27.393Z,103230.44
2022-12-18T20:22:29.310Z,103220.06
2022-12-18T20:25:31.232Z,103227.38
2022-12-18T20:28:33.252Z,103230.44
2022-12-18T20:31:35.235Z,103228.50
2022-12-18T20:34:37.117Z,103239.03
2022-12-18T20:37:39.533Z,103239.84
2022-12-18T20:40:44.651Z,103236.94
2022-12-18T20:43:46.773Z,103239.84
2022-12-18T20:46:50.145Z,103233.34
2022-12-18T20:49:51.887Z,103244.69
2022-12-18T20:52:53.625Z,103254.91
2022-12-18T20:55:55.305Z,103260.56
2022-12-18T20:58:58.195Z,103258.81
2022-12-18T21:02:00.154Z,103263.50
2022-12-18T21:05:02.001Z,103240.81
2022-12-18T21:08:03.756Z,103247.78
2022-12-18T21:11:51.302Z,103236.91
2022-12-18T21:14:52.952Z,103256.19
2022-12-18T21:17:54.583Z,103251.31
2022-12-18T21:20:56.458Z,103257.81
2022-12-18T21:23:58.064Z,103261.09
2022-12-18T21:26:59.729Z,103257.19
2022-12-18T21:30:01.743Z,103255.19
2022-12-18T21:33:03.661Z,103256.84
2022-12-18T21:36:06.602Z,103250.81
2022-12-18T21:39:08.561Z,103242.88
2022-12-18T21:42:31.706Z,103248.53
2022-12-18T21:45:33.346Z,103245.16
2022-12-18T21:48:38.329Z,103252.47
2022-12-18T21:51:40.289Z,103255.25
2022-12-18T21:54:41.979Z,103255.56
2022-12-18T21:57:43.617Z,103248.13
2022-12-18T22:00:48.671Z,103248.09
2022-12-18T22:03:50.536Z,103255.06
2022-12-18T22:06:52.836Z,103244.84
2022-12-18T22:09:54.578Z,103242.41
2022-12-18T22:12:56.227Z,103244.03
2022-12-18T22:15:57.932Z,103235.00
2022-12-18T22:18:59.992Z,103231.59
2022-12-18T22:22:01.929Z,103234.66
2022-12-18T22:25:03.962Z,103240.97
2022-12-18T22:28:24.303Z,103237.56
2022-12-18T22:31:25.980Z,103230.25
2022-12-18T22:34:27.926Z,103223.81
2022-12-18T22:37:29.560Z,103223.59
2022-12-18T22:40:31.250Z,103222.31
2022-12-18T22:43:33.409Z,103227.16
2022-12-18T22:46:38.409Z,103221.97
2022-12-18T22:49:40.045Z,103221.81
2022-12-18T22:52:41.734Z,103219.88
2022-12-18T22:55:43.410Z,103219.72
2022-12-18T22:58:47.940Z,103221.31
2022-12-18T23:01:51.555Z,103219.56
2022-12-18T23:05:00.095Z,103219.22
2022-12-18T23:08:01.780Z,103221.16
2022-12-18T23:11:04.538Z,103221.97
2022-12-18T23:14:06.238Z,103224.38
2022-12-18T23:17:07.910Z,103228.09
2022-12-18T23:20:10.154Z,103223.91
2022-12-18T23:23:11.758Z,103233.13
2022-12-18T23:26:21.113Z,103230.66
2022-12-18T23:29:22.756Z,103228.06
2022-12-18T23:32:24.350Z,103223.66
2022-12-18T23:35:26.127Z,103234.97
2022-12-18T23:38:28.705Z,103235.97
2022-12-18T23:41:31.730Z,103231.09
2022-12-18T23:44:33.974Z,103242.16
2022-12-18T23:47:36.156Z,103237.78
2022-12-18T23:50:38.117Z,103236.78
2022-12-18T23:53:40.310Z,103232.78
2022-12-18T23:56:42.379Z,103235.19
2022-12-18T23:59:44.113Z,103232.59
